• Join FlightAware (Why Join?)
  • Login
  • US Flag 
04:28PM EDT


 

Airport Tracker/Info


-or-


 

Live Flight TrackerFlight Track Log ✈ SWA125 ✈ 15-May-2013 ✈ KLAX - KMCI

Flight Track Log - Related Links

Times and Time Zones

All times are in EDT time to prevent confusion due to time zone crossing. See the SWA125 flight status page for this flight to view local times or setup timezone preferences in your user account.

Time Position Orientation Groundspeed Altitude Reporting Facility
EDT Latitude Longitude Course Direction KTS MPH feet Rate Location/Type
09:09AM 33.9333 -118.4500 101° East 173 199 1,200  Level Southern California TRACON
09:10AM 33.9000 -118.5000 231° Southwest 235 270 2,700 2,100 Climbing Southern California TRACON
09:11AM 33.8381 -118.5414 209° Southwest 271 312 5,400 2,700 Climbing Los Angeles Center
09:12AM 33.7653 -118.5325 174° South 292 336 8,100 2,640 Climbing Los Angeles Center
09:13AM 33.6947 -118.4858 151° Southeast 321 369 10,800 2,520 Climbing Los Angeles Center
09:14AM 33.6531 -118.3844 116° Southeast 342 394 13,300 2,520 Climbing Los Angeles Center
09:15AM 33.6689 -118.4300 101° East  Level FlightAware Approximate
09:15AM 33.6433 -118.2406 95° East 377 434 16,000  Level Los Angeles Center
09:16AM 33.6919 -118.1358 61° Northeast 389 448 18,300 2,160 Climbing Los Angeles Center
09:17AM 33.7772 -118.0589 37° Northeast 388 447 20,400 2,160 Climbing Los Angeles Center
09:18AM 33.8661 -117.9792 37° Northeast 399 459 22,800 2,100 Climbing Los Angeles Center
09:19AM 33.9558 -117.8983 37° Northeast 404 465 24,700 1,740 Climbing Los Angeles Center
09:20AM 34.0489 -117.8139 37° Northeast 413 475 26,400 1,560 Climbing Los Angeles Center
09:21AM 34.1364 -117.7147 43° Northeast 432 497 27,900 1,560 Climbing Los Angeles Center
09:22AM 34.2344 -117.5806 49° Northeast 443 510 29,600 1,680 Climbing Los Angeles Center
09:23AM 34.3208 -117.4703 46° Northeast 451 519 31,400 1,560 Climbing Los Angeles Center
09:24AM 34.3972 -117.3744 46° Northeast 448 516 32,800 1,320 Climbing Los Angeles Center
09:25AM 34.4819 -117.2639 47° Northeast 449 517 34,100 1,320 Climbing Los Angeles Center
09:26AM 34.5656 -117.1561 47° Northeast 445 512 35,600 1,260 Climbing Los Angeles Center
09:27AM 34.6658 -117.0283 46° Northeast 440 506 36,700 660 Climbing Los Angeles Center
09:28AM 34.7486 -116.9208 47° Northeast 440 506 37,000 120 Climbing Los Angeles Center
09:29AM 34.8328 -116.8125 47° Northeast 442 509 37,000  Level Los Angeles Center
09:30AM 34.9164 -116.7031 47° Northeast 444 511 37,000  Level Los Angeles Center
09:32AM 35.0003 -116.5953 46° Northeast 442 509 37,000  Level Los Angeles Center
09:33AM 35.0817 -116.4864 48° Northeast 437 503 37,000  Level Los Angeles Center
09:34AM 35.1806 -116.3556 47° Northeast 438 504 37,000  Level Los Angeles Center
09:35AM 35.2831 -116.2261 46° Northeast 441 507 37,000  Level Los Angeles Center
09:36AM 35.3464 -116.1389 48° Northeast 436 502 37,000  Level Los Angeles Center
09:37AM 35.4439 -116.0072 48° Northeast 436 502 37,000  Level Los Angeles Center
09:38AM 35.5289 -115.9006 46° Northeast 436 502 37,000  Level Los Angeles Center
09:39AM 35.6158 -115.7833 48° Northeast 428 493 37,000  Level Los Angeles Center
09:40AM 35.6961 -115.6761 47° Northeast 427 491 37,000  Level Los Angeles Center
09:41AM 35.7778 -115.5683 47° Northeast 430 495 37,000  Level Los Angeles Center
09:42AM 35.8575 -115.4600 48° Northeast 429 494 37,000  Level Los Angeles Center
09:43AM 35.9375 -115.3531 47° Northeast 428 493 37,000  Level Los Angeles Center
09:44AM 36.0167 -115.2464 47° Northeast 424 488 37,000  Level Los Angeles Center
09:45AM 36.0978 -115.0997 56° Northeast 439 505 37,000  Level Los Angeles Center
09:46AM 36.1411 -114.9567 69° East 447 514 37,000  Level Los Angeles Center
09:47AM 36.1853 -114.8131 69° East 448 516 37,000  Level Los Angeles Center
09:48AM 36.2292 -114.6667 70° East 454 522 37,000  Level Los Angeles Center
09:49AM 36.2756 -114.5175 69° East 462 532 37,000  Level Los Angeles Center
09:50AM 36.3214 -114.3678 69° East 466 536 37,000  Level Los Angeles Center
09:51AM 36.3664 -114.2158 70° East 470 541 37,000  Level Los Angeles Center
09:52AM 36.4208 -114.0339 70° East 469 540 37,000  Level Los Angeles Center
09:53AM 36.4661 -113.8817 70° East 470 541 37,000  Level Los Angeles Center
09:54AM 36.5100 -113.7506 67° East 472 543 37,000  Level Los Angeles Center
09:55AM 36.5694 -113.5714 68° East 469 540 37,000  Level Los Angeles Center
09:56AM 36.6178 -113.4203 68° East 472 543 37,000  Level Los Angeles Center
09:57AM 36.6658 -113.2700 68° East 470 541 37,000  Level Los Angeles Center
09:58AM 36.7150 -113.1194 68° East 471 542 37,000  Level Los Angeles Center
09:59AM 36.7625 -112.9683 69° East 471 542 37,000  Level Los Angeles Center
10:00AM 36.8197 -112.7883 68° East 469 540 37,000  Level Los Angeles Center
10:01AM 36.8667 -112.6369 69° East 470 541 37,000  Level Los Angeles Center
10:03AM 36.9150 -112.4864 68° East 470 541 37,000  Level Los Angeles Center
10:04AM 36.9608 -112.3369 69° East 466 536 37,000  Level Los Angeles Center
10:05AM 37.0078 -112.1867 69° East 466 536 37,000  Level Los Angeles Center
10:06AM 37.0531 -112.0392 69° East 460 529 37,000  Level Los Angeles Center
10:06AM 37.0819 -111.9494 68° East 461 531 37,000  Level Denver Center
10:07AM 37.1264 -111.8044 69° East 453 521 37,000  Level Denver Center
10:08AM 37.1711 -111.6594 69° East 449 517 37,000  Level Denver Center
10:09AM 37.2117 -111.5175 70° East 441 507 37,000  Level Denver Center
10:10AM 37.2536 -111.3736 70° East 442 509 37,000  Level Denver Center
10:11AM 37.3053 -111.2014 69° East 439 505 37,000  Level Denver Center
10:12AM 37.3486 -111.0569 69° East 442 509 37,000  Level Denver Center
10:13AM 37.3906 -110.9128 70° East 443 510 37,000  Level Denver Center
10:14AM 37.4333 -110.7669 70° East 444 511 37,000  Level Denver Center
10:15AM 37.4758 -110.6222 70° East 443 510 37,000  Level Denver Center
10:16AM 37.5206 -110.4700 70° East 442 509 37,000  Level Denver Center
10:17AM 37.5672 -110.3067 70° East 443 510 37,000  Level Denver Center
10:18AM 37.6081 -110.1669 70° East 444 511 37,000  Level Denver Center
10:19AM 37.6469 -110.0294 70° East 437 503 37,000  Level Denver Center
10:20AM 37.6931 -109.8672 70° East 439 505 37,000  Level Denver Center
10:22AM 37.7322 -109.7275 70° East 441 507 37,000  Level Denver Center
10:23AM 37.7778 -109.5650 70° East 438 504 37,000  Level Denver Center
10:24AM 37.8172 -109.4250 70° East 439 505 37,000  Level Denver Center
10:25AM 37.8628 -109.2619 70° East 441 507 37,000  Level Denver Center
10:26AM 37.9008 -109.1222 71° East 439 505 37,000  Level Denver Center
10:27AM 37.9394 -108.9819 71° East 441 507 37,000  Level Denver Center
10:28AM 37.9836 -108.8200 71° East 437 503 37,000  Level Denver Center
10:29AM 38.0217 -108.6797 71° East 437 503 37,000  Level Denver Center
10:30AM 38.0656 -108.5194 71° East 434 499 37,000  Level Denver Center
10:31AM 38.1061 -108.3672 71° East 433 498 37,000  Level Denver Center
10:32AM 38.1431 -108.2281 71° East 434 499 37,000  Level Denver Center
10:33AM 38.1856 -108.0672 71° East 430 495 37,000  Level Denver Center
10:34AM 38.2228 -107.9281 71° East 434 499 37,000  Level Denver Center
10:35AM 38.2647 -107.7667 72° East 432 497 37,000  Level Denver Center
10:36AM 38.3000 -107.6289 72° East 431 496 37,000  Level Denver Center
10:37AM 38.3358 -107.4917 72° East 428 493 37,000  Level Denver Center
10:38AM 38.3747 -107.3311 73° East 426 490 37,000  Level Denver Center
10:39AM 38.3806 -107.1803 87° East 423 487 37,000  Level Denver Center
10:40AM 38.3858 -107.0325 87° East 422 486 37,000  Level Denver Center
10:41AM 38.3914 -106.8861 87° East 417 480 37,000  Level Denver Center
10:42AM 38.3961 -106.7389 88° East 418 481 37,000  Level Denver Center
10:43AM 38.4014 -106.5611 88° East 419 482 37,000  Level Denver Center
10:44AM 38.4067 -106.4133 87° East 419 482 37,000  Level Denver Center
10:45AM 38.4119 -106.2689 87° East 411 473 37,000  Level Denver Center
10:46AM 38.4175 -106.1236 87° East 416 479 37,000  Level Denver Center
10:47AM 38.4197 -105.9611 89° East 413 475 37,000  Level Denver Center
10:48AM 38.4247 -105.8203 87° East 414 476 37,000  Level Denver Center
10:49AM 38.4306 -105.6564 87° East 414 476 37,000  Level Denver Center
10:50AM 38.4339 -105.5172 88° East 413 475 37,000  Level Denver Center
10:51AM 38.4372 -105.3553 88° East 410 472 37,000  Level Denver Center
10:52AM 38.4400 -105.2169 88° East 408 470 37,000  Level Denver Center
10:54AM 38.4428 -105.0547 89° East 409 471 37,000  Level Denver Center
10:55AM 38.4453 -104.9394 88° East 408 470 37,000  Level Denver Center
10:56AM 38.4506 -104.7283 88° East 413 475 37,000  Level Denver Center
10:57AM 38.4536 -104.5886 88° East 411 473 37,000  Level Denver Center
10:58AM 38.4561 -104.4264 89° East 410 472 37,000  Level Denver Center
10:59AM 38.4578 -104.2886 89° East 407 468 37,000  Level Denver Center
11:00AM 38.4586 -104.1269 90° East 407 468 37,000  Level Denver Center
11:01AM 38.4606 -103.9867 89° East 410 472 37,000  Level Denver Center
11:02AM 38.4619 -103.8264 89° East 407 468 37,000  Level Denver Center
11:03AM 38.4636 -103.6878 89° East 406 467 37,000  Level Denver Center
11:04AM 38.4653 -103.5278 89° East 405 466 37,000  Level Denver Center
11:05AM 38.4667 -103.3928 89° East 403 464 37,000  Level Denver Center
11:06AM 38.4661 -103.2328 90° East 404 465 37,000  Level Denver Center
11:07AM 38.4681 -103.0967 89° East 402 463 37,000  Level Denver Center
11:08AM 38.4681 -102.9392 90° East 398 458 37,000  Level Denver Center
11:09AM 38.4689 -102.8039 90° East 399 459 37,000  Level Denver Center
11:10AM 38.4689 -102.6689 90° East 399 459 37,000  Level Denver Center
11:11AM 38.4683 -102.5125 90° East 396 456 37,000  Level Denver Center
11:12AM 38.4692 -102.3775 90° East 395 455 37,000  Level Denver Center
11:13AM 38.4681 -102.2200 90° East 398 458 37,000  Level Denver Center
11:15AM 38.4681 -102.0836 90° East 402 463 37,000  Level Denver Center
11:16AM 38.4672 -101.9028 90° East 400 460 37,000  Level Denver Center
11:17AM 38.4661 -101.7653 91° East 405 466 37,000  Level Denver Center
11:18AM 38.4642 -101.6047 91° East 405 466 37,000  Level Denver Center
11:19AM 38.4631 -101.4678 91° East 402 463 37,000  Level Denver Center
11:20AM 38.4617 -101.3078 91° East 402 463 37,000  Level Denver Center
11:21AM 38.4603 -101.1706 91° East 405 466 37,000  Level Denver Center
11:22AM 38.4581 -101.0133 91° East 398 458 37,000  Level Denver Center
11:23AM 38.4564 -100.8761 91° East 402 463 37,000  Level Denver Center
11:24AM 38.4542 -100.7194 91° East 398 458 37,000  Level Denver Center
11:25AM 38.4519 -100.6097 91° East 392 451 37,000  Level Denver Center
11:26AM 38.4489 -100.4339 91° East 388 447 37,000  Level Denver Center
11:27AM 38.4467 -100.3006 91° East 391 450 37,000  Level Denver Center
11:28AM 38.4439 -100.1675 91° East 392 451 37,000  Level Denver Center
11:29AM 38.4408 -100.0119 91° East 393 452 37,000  Level Denver Center
11:30AM 38.4369 -99.8772 92° East 396 456 37,000  Level Denver Center
11:31AM 38.4344 -99.8086 93° East 396 456 37,000  Level Kansas City Center
11:32AM 38.4311 -99.6733 92° East 397 457 37,000  Level Kansas City Center
11:33AM 38.4275 -99.5225 92° East 401 461 37,000  Level Kansas City Center
11:34AM 38.4219 -99.3800 93° East 403 464 37,000  Level Kansas City Center
11:35AM 38.4197 -99.2364 91° East 405 466 37,000  Level Kansas City Center
11:36AM 38.4147 -99.0922 92° East 406 467 37,000  Level Kansas City Center
11:37AM 38.4114 -98.9494 92° East 404 465 37,000  Level Kansas City Center
11:38AM 38.4083 -98.7750 91° East 410 472 37,000 -120 Level Kansas City Center
11:39AM 38.4025 -98.6317 93° East 406 467 36,800 -540 Descending Kansas City Center
11:40AM 38.3967 -98.4853 93° East 410 472 35,900 -900 Descending Kansas City Center
11:41AM 38.3917 -98.3381 92° East 414 476 35,000 -480 Descending Kansas City Center
11:42AM 38.3867 -98.1942 92° East 405 466 35,000  Level Kansas City Center
11:43AM 38.3817 -98.0511 93° East 402 463 35,000 -960 Level Kansas City Center
11:44AM 38.3761 -97.9069 93° East 404 465 33,100 -1,020 Descending Kansas City Center
11:45AM 38.3686 -97.7381 93° East 396 456 33,000 -60 Descending Kansas City Center
11:46AM 38.3631 -97.5919 93° East 408 470 33,000  Level Kansas City Center
11:47AM 38.3564 -97.4433 93° East 416 479 33,000  Level Kansas City Center
11:48AM 38.3497 -97.2939 93° East 419 482 33,000 -900 Level Kansas City Center
11:49AM 38.3428 -97.1394 93° East 433 498 31,200 -1,620 Descending Kansas City Center
11:50AM 38.3347 -96.9869 94° East 431 496 29,700 -1,080 Descending Kansas City Center
11:51AM 38.3281 -96.8375 93° East 425 489 29,000 -360 Descending Kansas City Center
11:52AM 38.3200 -96.6878 94° East 424 488 29,000  Level Kansas City Center
11:53AM 38.3114 -96.5058 93° East 427 491 29,000  Level Kansas City Center
11:54AM 38.3028 -96.3603 94° East 425 489 29,000  Level Kansas City Center
11:55AM 38.2933 -96.1911 94° East 429 494 29,000  Level Kansas City Center
11:56AM 38.3425 -96.0669 63° Northeast 426 490 29,000 -900 Level Kansas City Center
11:57AM 38.4322 -95.9444 47° Northeast 423 487 27,200 -1,980 Descending Kansas City Center
11:58AM 38.5056 -95.8397 48° Northeast 417 480 24,900 -2,100 Descending Kansas City Center
11:59AM 38.5764 -95.7428 47° Northeast 394 453 22,900 -1,920 Descending Kansas City Center
12:01PM 38.6547 -95.6328 48° Northeast 376 433 21,000 -1,380 Descending Kansas City Center
12:02PM 38.7125 -95.5519 47° Northeast 322 371 20,100 -2,280 Descending Kansas City Center
12:03PM 38.7853 -95.4492 48° Northeast 351 404 16,400 -2,700 Descending Kansas City Center
12:04PM 38.8481 -95.3600 48° Northeast 353 406 14,600 -1,920 Descending Kansas City Center
12:05PM 38.9186 -95.2611 47° Northeast 336 387 12,500 -1,320 Descending Kansas City Center
12:06PM 38.9750 -95.1806 48° Northeast 321 369 11,900 -300 Descending Kansas City Center
12:07PM 39.0381 -95.0906 48° Northeast 305 351 12,000  Climbing Kansas City Center
12:08PM 39.0894 -95.0167 48° Northeast 294 338 12,000  Level Kansas City Center
12:09PM 39.1453 -94.9378 48° Northeast 269 310 12,000 -240 Level Kansas City Center
12:10PM 39.1928 -94.8733 46° Northeast 261 300 11,600 -1,020 Descending Kansas City Center
12:11PM 39.2739 -94.8483 13° North 268 308 10,000 -1,320 Descending Kansas City Center
12:12PM 39.3408 -94.8292 12° North 259 298 8,900 -1,140 Descending Kansas City Center
12:13PM 39.4156 -94.8056 14° North 248 285 7,700 -960 Descending Kansas City Center
12:14PM 39.4794 -94.7847 14° North 247 284 7,000 -660 Descending Kansas City Center
12:15PM 39.5342 -94.7350 35° Northeast 232 267 6,400 -960 Descending Kansas City Center
12:16PM 39.5097 -94.6808 120° Southeast 213 245 5,100 -1,260 Descending Kansas City Center
12:17PM 39.4531 -94.6814 180° South 176 203 3,900 -1,200 Descending Kansas City Center
12:18PM 39.4044 -94.6961 193° South 183 211 2,700 -1,080 Descending Kansas City Center
12:19PM 39.3581 -94.7100 193° South 146 168 1,700 -780 Descending Kansas City Center
12:20PM 39.3225 -94.7206 193° South 137 158 1,100 -600 Descending Kansas City Center